createdAt,value
2019-03-09T00:09:17.461Z,6.10
2019-03-09T08:25:42.823Z,7.40
2019-03-09T08:28:20.626Z,7.50
2019-03-09T08:30:48.917Z,7.50
2019-03-09T08:33:17.255Z,7.60
2019-03-09T08:38:18.043Z,7.70
2019-03-09T09:45:22.220Z,9.60
2019-03-09T09:47:50.535Z,9.70
2019-03-09T09:50:20.292Z,9.90
2019-03-09T09:52:51.198Z,10.20
2019-03-09T10:01:19.578Z,10.30
2019-03-09T11:05:18.349Z,11.40
2019-03-09T12:03:10.324Z,11.90
2019-03-09T12:05:38.574Z,11.80
2019-03-09T12:08:06.874Z,11.70
2019-03-09T12:10:35.147Z,11.70
2019-03-09T12:13:03.539Z,11.90
2019-03-09T12:15:31.813Z,11.80
2019-03-09T12:18:06.894Z,11.60
2019-03-09T12:20:35.162Z,11.60
2019-03-09T12:23:14.826Z,11.70
2019-03-09T12:25:43.137Z,11.70
2019-03-09T12:28:11.381Z,11.70
2019-03-09T12:30:39.686Z,11.80
2019-03-09T12:33:08.007Z,12.00
2019-03-09T12:35:36.907Z,12.00
2019-03-09T12:38:05.232Z,12.30
2019-03-09T12:40:33.486Z,12.70
2019-03-09T12:43:01.781Z,13.00
2019-03-09T12:45:30.047Z,13.00
2019-03-09T12:47:58.331Z,12.80
2019-03-09T12:50:26.613Z,13.10
2019-03-09T12:52:59.376Z,13.40
2019-03-09T12:55:27.633Z,13.40
2019-03-09T12:57:55.935Z,13.70
2019-03-09T13:00:24.781Z,13.50
2019-03-09T13:02:53.108Z,13.50
2019-03-09T13:05:21.473Z,14.10
2019-03-09T13:07:49.808Z,13.70
2019-03-09T13:10:18.318Z,13.50
2019-03-09T13:12:46.618Z,13.40
2019-03-09T13:15:15.772Z,13.60
2019-03-09T13:17:44.232Z,13.60
2019-03-09T13:20:16.185Z,13.90
2019-03-09T13:22:44.507Z,14.00
2019-03-09T13:25:12.852Z,13.90
2019-03-09T13:27:41.242Z,14.10
2019-03-09T13:30:18.304Z,14.10
2019-03-09T13:32:46.625Z,14.00
2019-03-09T13:35:14.930Z,14.10
2019-03-09T13:37:43.257Z,13.90
2019-03-09T13:40:12.929Z,13.60
2019-03-09T13:42:41.252Z,13.50
2019-03-09T13:45:15.340Z,13.40
2019-03-09T13:47:43.656Z,13.30
2019-03-09T13:50:13.097Z,13.20
2019-03-09T13:52:41.417Z,13.30
2019-03-09T13:55:10.698Z,13.30
2019-03-09T13:57:38.963Z,13.40
2019-03-09T14:00:15.110Z,12.90
2019-03-09T14:02:43.420Z,12.70
2019-03-09T14:05:11.812Z,12.80
2019-03-09T14:07:40.131Z,12.60
2019-03-09T14:10:13.453Z,12.60
2019-03-09T14:12:41.809Z,12.30
2019-03-09T14:15:13.068Z,12.10
2019-03-09T14:17:41.394Z,12.20
2019-03-09T14:20:11.516Z,12.00
2019-03-09T14:22:39.912Z,11.90
2019-03-09T14:25:12.529Z,11.70
2019-03-09T14:27:40.835Z,11.70
2019-03-09T14:30:17.351Z,11.70
2019-03-09T14:32:45.648Z,11.70
2019-03-09T14:35:13.970Z,11.60
2019-03-09T14:37:42.353Z,11.50
2019-03-09T14:40:14.971Z,11.50
2019-03-09T14:42:43.307Z,11.50
2019-03-09T14:45:16.370Z,11.40
2019-03-09T14:47:44.663Z,11.50
2019-03-09T14:50:13.416Z,11.50
2019-03-09T14:52:41.753Z,11.50
2019-03-09T14:55:11.241Z,11.50
2019-03-09T14:57:39.600Z,11.40
2019-03-09T15:00:14.108Z,11.40
2019-03-09T15:02:42.495Z,11.40
2019-03-09T15:05:10.817Z,11.30
2019-03-09T15:07:39.150Z,11.40
2019-03-09T15:10:09.550Z,11.30
2019-03-09T15:12:37.859Z,11.20
2019-03-09T15:15:09.484Z,11.20
2019-03-09T15:17:37.894Z,11.20
2019-03-09T15:20:08.985Z,11.20
2019-03-09T15:22:37.772Z,11.10
2019-03-09T15:25:08.739Z,11.20
2019-03-09T15:27:37.043Z,11.10
2019-03-09T15:30:11.300Z,11.10
2019-03-09T15:32:39.629Z,11.10
2019-03-09T15:35:08.910Z,11.10
2019-03-09T15:37:37.289Z,11.00
2019-03-09T15:40:08.346Z,11.00
2019-03-09T15:42:36.710Z,11.00
2019-03-09T15:45:07.715Z,10.90
2019-03-09T15:47:36.113Z,10.80
2019-03-09T15:50:07.020Z,10.90
2019-03-09T15:52:35.470Z,10.70
2019-03-09T15:55:04.795Z,10.70
2019-03-09T15:57:33.217Z,10.80
2019-03-09T16:00:01.511Z,10.70
2019-03-09T16:02:29.810Z,10.70
2019-03-09T16:04:58.166Z,10.70
2019-03-09T16:07:26.526Z,10.60
2019-03-09T16:09:54.869Z,10.60
2019-03-09T16:12:23.237Z,10.50
2019-03-09T16:14:51.613Z,10.30
2019-03-09T16:17:19.977Z,10.20
2019-03-09T16:19:48.283Z,10.10
2019-03-09T16:22:16.656Z,10.00
2019-03-09T16:24:45.008Z,9.90
2019-03-09T16:27:13.351Z,9.80
2019-03-09T16:29:41.661Z,9.80
2019-03-09T16:32:10.013Z,9.70
2019-03-09T16:34:39.107Z,9.60
2019-03-09T16:37:07.583Z,9.70
2019-03-09T16:39:35.898Z,9.60
2019-03-09T16:42:04.245Z,9.60
2019-03-09T16:44:32.615Z,9.50
2019-03-09T16:47:00.918Z,9.60
2019-03-09T16:49:29.279Z,9.60
2019-03-09T16:51:57.703Z,9.60
2019-03-09T16:54:26.095Z,9.60
2019-03-09T16:56:54.439Z,9.60
2019-03-09T16:59:22.767Z,9.60
2019-03-09T17:01:51.937Z,9.50
2019-03-09T17:04:20.340Z,9.60
2019-03-09T17:06:48.766Z,9.60
2019-03-09T17:09:17.218Z,9.50
2019-03-09T17:11:45.591Z,9.60
2019-03-09T17:14:13.914Z,9.60
2019-03-09T17:16:42.432Z,9.50
2019-03-09T17:19:10.830Z,9.40
2019-03-09T17:21:39.396Z,9.50
2019-03-09T17:24:07.724Z,9.40
2019-03-09T17:26:36.111Z,9.40
2019-03-09T17:29:04.348Z,9.40
2019-03-09T17:31:46.278Z,9.40
2019-03-09T17:34:11.829Z,9.40
2019-03-09T17:36:40.072Z,9.40
2019-03-09T17:39:09.025Z,9.40
2019-03-09T17:41:37.312Z,9.50
2019-03-09T17:44:05.521Z,9.50
2019-03-09T17:46:33.733Z,9.50
2019-03-09T17:49:01.955Z,9.50
2019-03-09T17:51:30.165Z,9.60
2019-03-09T17:53:58.384Z,9.50
2019-03-09T17:56:26.600Z,9.50
2019-03-09T17:58:54.817Z,9.50
2019-03-09T18:01:23.019Z,9.50
2019-03-09T18:03:51.229Z,9.60
2019-03-09T18:06:19.461Z,9.60
2019-03-09T18:08:47.649Z,9.60
2019-03-09T18:11:15.859Z,9.60
2019-03-09T18:13:44.094Z,9.60
2019-03-09T18:16:12.329Z,9.50
2019-03-09T18:18:40.546Z,9.50
2019-03-09T18:21:08.778Z,9.60
2019-03-09T18:23:37.009Z,9.50
2019-03-09T18:26:05.279Z,9.60
2019-03-09T18:28:33.491Z,9.50
2019-03-09T18:31:01.720Z,9.60
2019-03-09T18:33:29.948Z,9.60
2019-03-09T18:35:58.188Z,9.60
2019-03-09T18:38:26.438Z,9.50
2019-03-09T18:40:54.695Z,9.60
2019-03-09T18:43:22.904Z,9.60
2019-03-09T18:45:51.125Z,9.60
2019-03-09T18:48:19.354Z,9.60
2019-03-09T18:50:47.588Z,9.60
2019-03-09T18:53:15.827Z,9.60
2019-03-09T18:55:44.080Z,9.60
2019-03-09T18:58:12.350Z,9.60
2019-03-09T19:00:40.589Z,9.60
2019-03-09T19:03:08.819Z,9.70
2019-03-09T19:05:37.066Z,9.70
2019-03-09T19:08:05.324Z,9.70
2019-03-09T19:10:33.547Z,9.70
2019-03-09T19:13:01.771Z,9.70
2019-03-09T19:15:29.977Z,9.70
2019-03-09T19:17:58.190Z,9.70
2019-03-09T19:20:26.427Z,9.70
2019-03-09T19:22:54.643Z,9.80
2019-03-09T19:25:22.910Z,9.80
2019-03-09T19:27:51.170Z,9.90
2019-03-09T19:30:22.876Z,9.90
2019-03-09T19:33:00.026Z,9.90
2019-03-09T19:35:21.050Z,9.90
2019-03-09T19:37:49.316Z,9.90
2019-03-09T19:40:22.074Z,10.00
2019-03-09T19:42:50.328Z,10.00
2019-03-09T19:45:21.669Z,9.90
2019-03-09T19:47:49.921Z,9.90
2019-03-09T19:50:20.337Z,10.00
2019-03-09T19:52:50.366Z,10.00
2019-03-09T19:55:25.986Z,10.00
2019-03-09T19:57:51.407Z,10.00
2019-03-09T20:00:20.617Z,10.00
2019-03-09T20:02:48.855Z,10.10
2019-03-09T20:05:17.124Z,10.00
2019-03-09T20:07:45.432Z,10.00
2019-03-09T20:10:18.315Z,10.00
2019-03-09T20:12:46.581Z,10.10
2019-03-09T20:15:15.701Z,10.10
2019-03-09T20:17:45.733Z,10.20
2019-03-09T20:20:15.213Z,10.20
2019-03-09T20:22:43.551Z,10.20
2019-03-09T20:25:12.035Z,10.20
2019-03-09T20:27:40.650Z,10.50
2019-03-09T20:30:11.491Z,10.60
2019-03-09T20:32:39.828Z,10.60
2019-03-09T20:35:08.719Z,10.50
2019-03-09T20:37:37.044Z,10.50
2019-03-09T20:40:10.378Z,10.50
2019-03-09T20:42:38.702Z,10.50
2019-03-09T20:45:09.685Z,10.40
2019-03-09T20:47:37.970Z,10.50
2019-03-09T20:50:09.726Z,10.40
2019-03-09T20:52:38.009Z,10.40
2019-03-09T20:55:06.817Z,10.50
2019-03-09T20:57:35.138Z,10.50
2019-03-09T21:00:05.932Z,10.50
2019-03-09T21:02:35.750Z,10.40
2019-03-09T21:05:05.621Z,10.50
2019-03-09T21:07:33.880Z,10.50
2019-03-09T21:10:08.273Z,10.50
2019-03-09T21:12:36.619Z,10.50
2019-03-09T21:15:05.751Z,10.50
2019-03-09T21:17:34.026Z,10.50
2019-03-09T21:20:02.408Z,10.50
2019-03-09T21:22:30.684Z,10.50
2019-03-09T21:24:58.973Z,10.50
2019-03-09T21:27:27.242Z,10.50
2019-03-09T21:29:55.524Z,10.50
2019-03-09T21:32:23.840Z,10.50
2019-03-09T21:34:52.163Z,10.50
2019-03-09T21:37:20.488Z,10.40
2019-03-09T21:39:48.871Z,10.50
2019-03-09T21:42:19.296Z,10.50
2019-03-09T21:44:47.583Z,10.50
2019-03-09T21:47:17.452Z,10.50
2019-03-09T21:49:45.736Z,10.50
2019-03-09T21:52:14.062Z,10.50
2019-03-09T21:54:42.416Z,10.50
2019-03-09T21:57:10.722Z,10.50
2019-03-09T21:59:39.172Z,10.50
2019-03-09T22:02:07.605Z,10.50
2019-03-09T22:04:35.944Z,10.50
2019-03-09T22:07:04.237Z,10.50
2019-03-09T22:09:32.517Z,10.50
2019-03-09T22:12:00.825Z,10.50
2019-03-09T22:14:29.155Z,10.50
2019-03-09T22:16:57.497Z,10.60
2019-03-09T22:19:25.806Z,10.50
2019-03-09T22:21:55.831Z,10.60
2019-03-09T22:24:24.152Z,10.50
2019-03-09T22:26:52.402Z,10.60
2019-03-09T22:29:20.704Z,10.60
2019-03-09T22:31:49.087Z,10.60
2019-03-09T22:34:17.431Z,10.60
2019-03-09T22:36:45.685Z,10.60
2019-03-09T22:39:14.027Z,10.60
2019-03-09T22:41:42.284Z,10.60
2019-03-09T22:44:10.555Z,10.60
2019-03-09T22:46:38.873Z,10.60
2019-03-09T22:49:07.173Z,10.60
2019-03-09T22:51:35.451Z,10.60
2019-03-09T22:54:03.729Z,10.60
2019-03-09T22:56:32.066Z,10.70
2019-03-09T22:59:00.482Z,10.70
2019-03-09T23:01:28.867Z,10.60
2019-03-09T23:03:57.167Z,10.60
2019-03-09T23:06:25.425Z,10.60
2019-03-09T23:08:53.716Z,10.60
2019-03-09T23:11:22.024Z,10.60
2019-03-09T23:13:50.302Z,10.60
2019-03-09T23:16:18.551Z,10.60
2019-03-09T23:18:46.822Z,10.60
2019-03-09T23:21:15.074Z,10.60
2019-03-09T23:23:43.353Z,10.60
2019-03-09T23:26:11.696Z,10.60
2019-03-09T23:28:47.202Z,10.60
2019-03-09T23:31:15.535Z,10.50
2019-03-09T23:33:43.819Z,10.50
2019-03-09T23:36:12.153Z,10.60
2019-03-09T23:38:40.549Z,10.60
2019-03-09T23:41:08.898Z,10.50
2019-03-09T23:43:37.277Z,10.60
2019-03-09T23:46:07.308Z,10.50
2019-03-09T23:48:35.678Z,10.50
2019-03-09T23:51:04.124Z,10.50
2019-03-09T23:53:32.587Z,10.50
2019-03-09T23:56:01.029Z,10.50
2019-03-09T23:58:29.402Z,10.50
